sensor_id;sensor_type;location;lat;lon;timestamp;P1;durP1;ratioP1;P2;durP2;ratioP2
84966;SDS011;75275;51.348;12.358;2024-02-26T00:02:24;8.15;;;4.75;;
84966;SDS011;75275;51.348;12.358;2024-02-26T00:04:51;8.80;;;5.13;;
84966;SDS011;75275;51.348;12.358;2024-02-26T00:07:18;8.50;;;4.97;;
84966;SDS011;75275;51.348;12.358;2024-02-26T00:09:46;10.80;;;5.55;;
84966;SDS011;75275;51.348;12.358;2024-02-26T00:12:12;7.63;;;4.80;;
84966;SDS011;75275;51.348;12.358;2024-02-26T00:14:39;10.45;;;5.38;;
84966;SDS011;75275;51.348;12.358;2024-02-26T00:17:07;9.48;;;5.00;;
84966;SDS011;75275;51.348;12.358;2024-02-26T00:19:36;9.25;;;5.78;;
84966;SDS011;75275;51.348;12.358;2024-02-26T00:22:03;10.35;;;5.07;;
84966;SDS011;75275;51.348;12.358;2024-02-26T00:26:57;10.32;;;5.20;;
84966;SDS011;75275;51.348;12.358;2024-02-26T00:29:26;8.32;;;4.80;;
84966;SDS011;75275;51.348;12.358;2024-02-26T00:31:52;8.05;;;5.10;;
84966;SDS011;75275;51.348;12.358;2024-02-26T00:34:19;9.02;;;4.95;;
84966;SDS011;75275;51.348;12.358;2024-02-26T00:36:49;12.38;;;5.60;;
84966;SDS011;75275;51.348;12.358;2024-02-26T00:39:16;13.02;;;5.80;;
84966;SDS011;75275;51.348;12.358;2024-02-26T00:41:42;11.30;;;5.75;;
84966;SDS011;75275;51.348;12.358;2024-02-26T00:44:09;9.48;;;5.90;;
84966;SDS011;75275;51.348;12.358;2024-02-26T00:46:36;10.48;;;6.50;;
84966;SDS011;75275;51.348;12.358;2024-02-26T00:49:03;11.05;;;6.28;;
84966;SDS011;75275;51.348;12.358;2024-02-26T00:51:30;10.88;;;6.05;;
84966;SDS011;75275;51.348;12.358;2024-02-26T00:53:59;9.27;;;6.68;;
84966;SDS011;75275;51.348;12.358;2024-02-26T00:56:26;12.02;;;6.63;;
84966;SDS011;75275;51.348;12.358;2024-02-26T00:58:52;14.45;;;8.40;;
84966;SDS011;75275;51.348;12.358;2024-02-26T01:01:23;13.02;;;6.97;;
84966;SDS011;75275;51.348;12.358;2024-02-26T01:03:53;12.70;;;7.40;;
84966;SDS011;75275;51.348;12.358;2024-02-26T01:06:20;13.95;;;7.40;;
84966;SDS011;75275;51.348;12.358;2024-02-26T01:08:47;13.18;;;8.20;;
84966;SDS011;75275;51.348;12.358;2024-02-26T01:11:15;16.85;;;8.18;;
84966;SDS011;75275;51.348;12.358;2024-02-26T01:13:42;12.85;;;7.68;;
84966;SDS011;75275;51.348;12.358;2024-02-26T01:16:09;14.90;;;7.82;;
84966;SDS011;75275;51.348;12.358;2024-02-26T01:18:37;14.85;;;8.25;;
84966;SDS011;75275;51.348;12.358;2024-02-26T01:21:03;15.57;;;8.27;;
84966;SDS011;75275;51.348;12.358;2024-02-26T01:23:33;14.20;;;8.07;;
84966;SDS011;75275;51.348;12.358;2024-02-26T01:26:04;17.15;;;8.68;;
84966;SDS011;75275;51.348;12.358;2024-02-26T01:28:35;14.68;;;8.82;;
84966;SDS011;75275;51.348;12.358;2024-02-26T01:31:02;17.13;;;9.63;;
84966;SDS011;75275;51.348;12.358;2024-02-26T01:33:31;16.77;;;9.80;;
84966;SDS011;75275;51.348;12.358;2024-02-26T01:35:58;13.13;;;8.88;;
84966;SDS011;75275;51.348;12.358;2024-02-26T01:38:26;16.27;;;9.75;;
84966;SDS011;75275;51.348;12.358;2024-02-26T01:40:55;16.88;;;9.85;;
84966;SDS011;75275;51.348;12.358;2024-02-26T01:43:22;17.27;;;10.13;;
84966;SDS011;75275;51.348;12.358;2024-02-26T01:45:51;15.65;;;9.02;;
84966;SDS011;75275;51.348;12.358;2024-02-26T01:48:17;16.52;;;9.57;;
84966;SDS011;75275;51.348;12.358;2024-02-26T01:50:48;19.25;;;10.43;;
84966;SDS011;75275;51.348;12.358;2024-02-26T01:53:16;17.27;;;10.05;;
84966;SDS011;75275;51.348;12.358;2024-02-26T01:55:43;17.13;;;9.38;;
84966;SDS011;75275;51.348;12.358;2024-02-26T01:58:10;17.80;;;9.68;;
84966;SDS011;75275;51.348;12.358;2024-02-26T02:00:38;17.52;;;9.40;;
84966;SDS011;75275;51.348;12.358;2024-02-26T02:03:07;18.05;;;10.35;;
84966;SDS011;75275;51.348;12.358;2024-02-26T02:05:34;14.80;;;9.82;;
84966;SDS011;75275;51.348;12.358;2024-02-26T02:08:07;19.73;;;12.13;;
84966;SDS011;75275;51.348;12.358;2024-02-26T02:10:34;16.27;;;10.38;;
84966;SDS011;75275;51.348;12.358;2024-02-26T02:13:02;18.08;;;10.18;;
84966;SDS011;75275;51.348;12.358;2024-02-26T02:15:28;17.98;;;9.98;;
84966;SDS011;75275;51.348;12.358;2024-02-26T02:17:55;16.10;;;10.15;;
84966;SDS011;75275;51.348;12.358;2024-02-26T02:20:26;17.10;;;10.02;;
84966;SDS011;75275;51.348;12.358;2024-02-26T02:22:53;19.42;;;10.30;;
84966;SDS011;75275;51.348;12.358;2024-02-26T02:25:20;16.95;;;9.57;;
84966;SDS011;75275;51.348;12.358;2024-02-26T02:27:47;17.10;;;8.82;;
84966;SDS011;75275;51.348;12.358;2024-02-26T02:30:14;17.35;;;10.15;;
84966;SDS011;75275;51.348;12.358;2024-02-26T02:35:08;15.82;;;8.98;;
84966;SDS011;75275;51.348;12.358;2024-02-26T02:37:43;18.98;;;9.35;;
84966;SDS011;75275;51.348;12.358;2024-02-26T02:40:10;15.25;;;9.25;;
84966;SDS011;75275;51.348;12.358;2024-02-26T02:42:37;15.55;;;9.00;;
84966;SDS011;75275;51.348;12.358;2024-02-26T02:45:04;16.13;;;8.85;;
84966;SDS011;75275;51.348;12.358;2024-02-26T02:47:34;14.60;;;8.05;;
84966;SDS011;75275;51.348;12.358;2024-02-26T02:50:02;13.40;;;9.10;;
84966;SDS011;75275;51.348;12.358;2024-02-26T02:52:29;15.90;;;8.85;;
84966;SDS011;75275;51.348;12.358;2024-02-26T02:54:58;16.00;;;9.10;;
84966;SDS011;75275;51.348;12.358;2024-02-26T02:57:25;16.90;;;9.65;;
84966;SDS011;75275;51.348;12.358;2024-02-26T02:59:54;13.93;;;8.35;;
84966;SDS011;75275;51.348;12.358;2024-02-26T03:02:20;13.13;;;8.73;;
84966;SDS011;75275;51.348;12.358;2024-02-26T03:04:48;17.15;;;8.70;;
84966;SDS011;75275;51.348;12.358;2024-02-26T03:07:15;15.00;;;8.93;;
84966;SDS011;75275;51.348;12.358;2024-02-26T03:09:42;13.63;;;8.77;;
84966;SDS011;75275;51.348;12.358;2024-02-26T03:12:10;16.02;;;9.60;;
84966;SDS011;75275;51.348;12.358;2024-02-26T03:14:41;16.48;;;8.20;;
84966;SDS011;75275;51.348;12.358;2024-02-26T03:17:08;15.35;;;8.68;;
84966;SDS011;75275;51.348;12.358;2024-02-26T03:19:35;13.48;;;7.85;;
84966;SDS011;75275;51.348;12.358;2024-02-26T03:22:08;14.65;;;8.70;;
84966;SDS011;75275;51.348;12.358;2024-02-26T03:24:35;14.57;;;9.07;;
84966;SDS011;75275;51.348;12.358;2024-02-26T03:27:02;14.52;;;8.55;;
84966;SDS011;75275;51.348;12.358;2024-02-26T03:29:31;14.88;;;9.02;;
84966;SDS011;75275;51.348;12.358;2024-02-26T03:31:58;18.23;;;8.77;;
84966;SDS011;75275;51.348;12.358;2024-02-26T03:34:25;15.48;;;9.52;;
84966;SDS011;75275;51.348;12.358;2024-02-26T03:36:52;15.93;;;9.15;;
84966;SDS011;75275;51.348;12.358;2024-02-26T03:39:19;15.75;;;8.88;;
84966;SDS011;75275;51.348;12.358;2024-02-26T03:44:12;13.68;;;8.98;;
84966;SDS011;75275;51.348;12.358;2024-02-26T03:46:41;19.27;;;11.05;;
84966;SDS011;75275;51.348;12.358;2024-02-26T03:49:08;18.13;;;10.20;;
84966;SDS011;75275;51.348;12.358;2024-02-26T03:51:36;16.58;;;10.43;;
84966;SDS011;75275;51.348;12.358;2024-02-26T03:54:03;19.88;;;10.75;;
84966;SDS011;75275;51.348;12.358;2024-02-26T03:56:30;20.40;;;12.07;;
84966;SDS011;75275;51.348;12.358;2024-02-26T03:58:57;21.58;;;12.90;;
84966;SDS011;75275;51.348;12.358;2024-02-26T04:01:27;23.92;;;14.15;;
84966;SDS011;75275;51.348;12.358;2024-02-26T04:03:56;24.88;;;14.23;;
84966;SDS011;75275;51.348;12.358;2024-02-26T04:06:23;20.33;;;13.30;;
84966;SDS011;75275;51.348;12.358;2024-02-26T04:08:50;25.33;;;13.77;;
84966;SDS011;75275;51.348;12.358;2024-02-26T04:11:17;22.17;;;13.15;;
84966;SDS011;75275;51.348;12.358;2024-02-26T04:13:44;21.83;;;13.10;;
84966;SDS011;75275;51.348;12.358;2024-02-26T04:16:14;24.73;;;14.80;;
84966;SDS011;75275;51.348;12.358;2024-02-26T04:18:41;27.83;;;14.90;;
84966;SDS011;75275;51.348;12.358;2024-02-26T04:21:10;26.33;;;14.95;;
84966;SDS011;75275;51.348;12.358;2024-02-26T04:23:41;23.65;;;13.95;;
84966;SDS011;75275;51.348;12.358;2024-02-26T04:26:08;23.42;;;14.60;;
84966;SDS011;75275;51.348;12.358;2024-02-26T04:28:35;27.80;;;15.40;;
84966;SDS011;75275;51.348;12.358;2024-02-26T04:31:02;26.63;;;15.43;;
84966;SDS011;75275;51.348;12.358;2024-02-26T04:35:56;24.00;;;14.68;;
84966;SDS011;75275;51.348;12.358;2024-02-26T04:38:24;23.48;;;13.57;;
84966;SDS011;75275;51.348;12.358;2024-02-26T04:40:51;22.55;;;13.73;;
84966;SDS011;75275;51.348;12.358;2024-02-26T04:43:19;25.80;;;14.82;;
84966;SDS011;75275;51.348;12.358;2024-02-26T04:45:45;24.20;;;14.70;;
84966;SDS011;75275;51.348;12.358;2024-02-26T04:48:13;28.15;;;16.27;;
84966;SDS011;75275;51.348;12.358;2024-02-26T04:50:40;24.55;;;15.63;;
84966;SDS011;75275;51.348;12.358;2024-02-26T04:53:07;27.95;;;15.15;;
84966;SDS011;75275;51.348;12.358;2024-02-26T04:58:03;25.70;;;15.55;;
84966;SDS011;75275;51.348;12.358;2024-02-26T05:00:30;25.40;;;14.30;;
84966;SDS011;75275;51.348;12.358;2024-02-26T05:02:57;25.05;;;14.88;;
84966;SDS011;75275;51.348;12.358;2024-02-26T05:05:24;26.17;;;14.85;;
84966;SDS011;75275;51.348;12.358;2024-02-26T05:10:18;25.95;;;14.55;;
84966;SDS011;75275;51.348;12.358;2024-02-26T05:12:47;25.88;;;14.85;;
84966;SDS011;75275;51.348;12.358;2024-02-26T05:15:17;27.63;;;16.40;;
84966;SDS011;75275;51.348;12.358;2024-02-26T05:17:44;28.02;;;14.88;;
84966;SDS011;75275;51.348;12.358;2024-02-26T05:20:12;25.83;;;14.57;;
84966;SDS011;75275;51.348;12.358;2024-02-26T05:22:40;28.70;;;15.18;;
84966;SDS011;75275;51.348;12.358;2024-02-26T05:25:07;27.83;;;15.27;;
84966;SDS011;75275;51.348;12.358;2024-02-26T05:27:34;26.05;;;15.65;;
84966;SDS011;75275;51.348;12.358;2024-02-26T05:30:03;22.20;;;14.90;;
84966;SDS011;75275;51.348;12.358;2024-02-26T05:32:31;27.83;;;15.80;;
84966;SDS011;75275;51.348;12.358;2024-02-26T05:34:59;25.92;;;14.73;;
84966;SDS011;75275;51.348;12.358;2024-02-26T05:37:28;28.52;;;16.15;;
84966;SDS011;75275;51.348;12.358;2024-02-26T05:39:55;28.25;;;17.02;;
84966;SDS011;75275;51.348;12.358;2024-02-26T05:42:22;26.83;;;15.93;;
84966;SDS011;75275;51.348;12.358;2024-02-26T05:47:17;24.13;;;14.43;;
84966;SDS011;75275;51.348;12.358;2024-02-26T05:49:44;26.40;;;15.35;;
84966;SDS011;75275;51.348;12.358;2024-02-26T05:52:11;24.90;;;15.85;;
84966;SDS011;75275;51.348;12.358;2024-02-26T05:54:38;24.83;;;15.07;;
84966;SDS011;75275;51.348;12.358;2024-02-26T05:57:06;22.90;;;14.15;;
84966;SDS011;75275;51.348;12.358;2024-02-26T05:59:33;23.42;;;14.68;;
84966;SDS011;75275;51.348;12.358;2024-02-26T06:02:00;21.00;;;13.25;;
84966;SDS011;75275;51.348;12.358;2024-02-26T06:04:28;24.00;;;14.73;;
84966;SDS011;75275;51.348;12.358;2024-02-26T06:06:55;21.35;;;12.80;;
84966;SDS011;75275;51.348;12.358;2024-02-26T06:09:22;25.45;;;13.85;;
84966;SDS011;75275;51.348;12.358;2024-02-26T06:11:49;23.48;;;14.88;;
84966;SDS011;75275;51.348;12.358;2024-02-26T06:14:16;22.83;;;14.70;;
84966;SDS011;75275;51.348;12.358;2024-02-26T06:16:43;24.25;;;13.70;;
84966;SDS011;75275;51.348;12.358;2024-02-26T06:19:10;24.42;;;14.80;;
84966;SDS011;75275;51.348;12.358;2024-02-26T06:21:39;24.50;;;14.32;;
84966;SDS011;75275;51.348;12.358;2024-02-26T06:24:06;23.00;;;13.90;;
84966;SDS011;75275;51.348;12.358;2024-02-26T06:26:32;23.23;;;13.65;;
84966;SDS011;75275;51.348;12.358;2024-02-26T06:28:59;19.85;;;13.95;;
84966;SDS011;75275;51.348;12.358;2024-02-26T06:31:26;22.80;;;15.13;;
84966;SDS011;75275;51.348;12.358;2024-02-26T06:33:54;22.77;;;13.75;;
84966;SDS011;75275;51.348;12.358;2024-02-26T06:36:21;21.40;;;12.88;;
84966;SDS011;75275;51.348;12.358;2024-02-26T06:38:52;25.55;;;13.05;;
84966;SDS011;75275;51.348;12.358;2024-02-26T06:41:25;23.60;;;14.00;;
84966;SDS011;75275;51.348;12.358;2024-02-26T06:43:54;20.98;;;13.35;;
84966;SDS011;75275;51.348;12.358;2024-02-26T06:48:48;21.35;;;12.80;;
84966;SDS011;75275;51.348;12.358;2024-02-26T06:51:15;23.23;;;14.30;;
84966;SDS011;75275;51.348;12.358;2024-02-26T06:53:43;21.25;;;12.30;;
84966;SDS011;75275;51.348;12.358;2024-02-26T06:56:11;21.52;;;13.25;;
84966;SDS011;75275;51.348;12.358;2024-02-26T06:58:38;22.70;;;12.73;;
84966;SDS011;75275;51.348;12.358;2024-02-26T07:01:05;21.38;;;13.40;;
84966;SDS011;75275;51.348;12.358;2024-02-26T07:03:33;23.05;;;13.57;;
84966;SDS011;75275;51.348;12.358;2024-02-26T07:06:00;23.10;;;13.60;;
84966;SDS011;75275;51.348;12.358;2024-02-26T07:08:27;20.50;;;13.45;;
84966;SDS011;75275;51.348;12.358;2024-02-26T07:13:22;22.40;;;12.48;;
84966;SDS011;75275;51.348;12.358;2024-02-26T07:15:49;21.05;;;12.52;;
84966;SDS011;75275;51.348;12.358;2024-02-26T07:18:18;20.67;;;12.70;;
84966;SDS011;75275;51.348;12.358;2024-02-26T07:20:45;18.67;;;11.85;;
84966;SDS011;75275;51.348;12.358;2024-02-26T07:23:12;19.35;;;12.15;;
84966;SDS011;75275;51.348;12.358;2024-02-26T07:25:39;20.70;;;12.65;;
84966;SDS011;75275;51.348;12.358;2024-02-26T07:28:07;20.95;;;12.32;;
84966;SDS011;75275;51.348;12.358;2024-02-26T07:30:35;23.58;;;12.35;;
84966;SDS011;75275;51.348;12.358;2024-02-26T07:33:04;18.25;;;11.77;;
84966;SDS011;75275;51.348;12.358;2024-02-26T07:35:31;19.38;;;12.05;;
84966;SDS011;75275;51.348;12.358;2024-02-26T07:37:58;19.40;;;11.82;;
84966;SDS011;75275;51.348;12.358;2024-02-26T07:40:25;17.67;;;11.52;;
84966;SDS011;75275;51.348;12.358;2024-02-26T07:45:19;19.35;;;10.85;;
84966;SDS011;75275;51.348;12.358;2024-02-26T07:50:16;16.65;;;11.23;;
84966;SDS011;75275;51.348;12.358;2024-02-26T07:52:44;16.10;;;10.15;;
84966;SDS011;75275;51.348;12.358;2024-02-26T07:55:11;16.50;;;9.40;;
84966;SDS011;75275;51.348;12.358;2024-02-26T07:57:41;15.70;;;10.00;;
84966;SDS011;75275;51.348;12.358;2024-02-26T08:00:09;16.23;;;10.40;;
84966;SDS011;75275;51.348;12.358;2024-02-26T08:02:41;15.52;;;9.82;;
84966;SDS011;75275;51.348;12.358;2024-02-26T08:05:10;16.58;;;9.95;;
84966;SDS011;75275;51.348;12.358;2024-02-26T08:07:40;15.55;;;9.85;;
84966;SDS011;75275;51.348;12.358;2024-02-26T08:10:28;15.95;;;10.18;;
84966;SDS011;75275;51.348;12.358;2024-02-26T08:12:54;18.33;;;9.43;;
84966;SDS011;75275;51.348;12.358;2024-02-26T08:15:30;14.05;;;8.90;;
84966;SDS011;75275;51.348;12.358;2024-02-26T08:20:24;15.45;;;9.63;;
84966;SDS011;75275;51.348;12.358;2024-02-26T08:22:51;14.55;;;9.65;;
84966;SDS011;75275;51.348;12.358;2024-02-26T08:25:18;15.88;;;9.48;;
84966;SDS011;75275;51.348;12.358;2024-02-26T08:27:45;16.90;;;9.57;;
84966;SDS011;75275;51.348;12.358;2024-02-26T08:30:13;13.75;;;9.27;;
84966;SDS011;75275;51.348;12.358;2024-02-26T08:32:42;15.07;;;9.32;;
84966;SDS011;75275;51.348;12.358;2024-02-26T08:35:13;14.13;;;8.93;;
84966;SDS011;75275;51.348;12.358;2024-02-26T08:37:43;11.82;;;8.50;;
84966;SDS011;75275;51.348;12.358;2024-02-26T08:40:13;14.48;;;8.95;;
84966;SDS011;75275;51.348;12.358;2024-02-26T08:42:40;16.02;;;8.95;;
84966;SDS011;75275;51.348;12.358;2024-02-26T08:45:08;15.13;;;9.45;;
84966;SDS011;75275;51.348;12.358;2024-02-26T08:47:36;17.40;;;10.77;;
84966;SDS011;75275;51.348;12.358;2024-02-26T08:52:30;13.88;;;8.85;;
84966;SDS011;75275;51.348;12.358;2024-02-26T08:54:59;16.65;;;8.10;;
84966;SDS011;75275;51.348;12.358;2024-02-26T08:57:27;13.55;;;8.10;;
84966;SDS011;75275;51.348;12.358;2024-02-26T08:59:57;14.57;;;8.63;;
84966;SDS011;75275;51.348;12.358;2024-02-26T09:02:25;12.40;;;7.68;;
84966;SDS011;75275;51.348;12.358;2024-02-26T09:04:59;17.08;;;9.23;;
84966;SDS011;75275;51.348;12.358;2024-02-26T09:07:26;12.48;;;7.75;;
84966;SDS011;75275;51.348;12.358;2024-02-26T09:09:53;12.27;;;7.63;;
84966;SDS011;75275;51.348;12.358;2024-02-26T09:12:23;12.88;;;7.60;;
84966;SDS011;75275;51.348;12.358;2024-02-26T09:14:50;14.05;;;8.15;;
84966;SDS011;75275;51.348;12.358;2024-02-26T09:17:18;10.13;;;7.32;;
84966;SDS011;75275;51.348;12.358;2024-02-26T09:22:11;12.50;;;7.95;;
84966;SDS011;75275;51.348;12.358;2024-02-26T09:24:41;11.65;;;7.78;;
84966;SDS011;75275;51.348;12.358;2024-02-26T09:27:08;12.20;;;8.32;;
84966;SDS011;75275;51.348;12.358;2024-02-26T09:29:36;16.25;;;8.25;;
84966;SDS011;75275;51.348;12.358;2024-02-26T09:32:03;14.80;;;8.00;;
84966;SDS011;75275;51.348;12.358;2024-02-26T09:34:30;11.38;;;7.05;;
84966;SDS011;75275;51.348;12.358;2024-02-26T09:36:58;10.52;;;7.47;;
84966;SDS011;75275;51.348;12.358;2024-02-26T09:39:26;10.93;;;6.97;;
84966;SDS011;75275;51.348;12.358;2024-02-26T09:41:53;10.93;;;6.90;;
84966;SDS011;75275;51.348;12.358;2024-02-26T09:44:20;8.57;;;6.43;;
84966;SDS011;75275;51.348;12.358;2024-02-26T09:46:49;10.93;;;7.13;;
84966;SDS011;75275;51.348;12.358;2024-02-26T09:49:17;11.80;;;6.47;;
84966;SDS011;75275;51.348;12.358;2024-02-26T09:51:46;9.88;;;6.43;;
84966;SDS011;75275;51.348;12.358;2024-02-26T09:54:15;11.90;;;7.05;;
84966;SDS011;75275;51.348;12.358;2024-02-26T09:56:43;8.70;;;5.90;;
84966;SDS011;75275;51.348;12.358;2024-02-26T09:59:15;9.02;;;5.10;;
84966;SDS011;75275;51.348;12.358;2024-02-26T10:01:44;8.98;;;5.47;;
84966;SDS011;75275;51.348;12.358;2024-02-26T10:04:16;10.07;;;5.45;;
84966;SDS011;75275;51.348;12.358;2024-02-26T10:06:47;10.20;;;4.82;;
84966;SDS011;75275;51.348;12.358;2024-02-26T10:09:14;10.93;;;5.88;;
84966;SDS011;75275;51.348;12.358;2024-02-26T10:11:42;7.57;;;5.32;;
84966;SDS011;75275;51.348;12.358;2024-02-26T10:14:14;8.80;;;5.45;;
84966;SDS011;75275;51.348;12.358;2024-02-26T10:16:42;8.02;;;5.28;;
84966;SDS011;75275;51.348;12.358;2024-02-26T10:19:09;8.98;;;5.53;;
84966;SDS011;75275;51.348;12.358;2024-02-26T10:22:02;8.73;;;5.40;;
84966;SDS011;75275;51.348;12.358;2024-02-26T10:24:32;11.23;;;6.00;;
84966;SDS011;75275;51.348;12.358;2024-02-26T10:26:59;10.38;;;5.85;;
84966;SDS011;75275;51.348;12.358;2024-02-26T10:29:28;7.50;;;5.45;;
84966;SDS011;75275;51.348;12.358;2024-02-26T10:31:55;10.73;;;5.60;;
84966;SDS011;75275;51.348;12.358;2024-02-26T10:34:22;8.35;;;5.43;;
84966;SDS011;75275;51.348;12.358;2024-02-26T10:36:54;7.45;;;4.80;;
84966;SDS011;75275;51.348;12.358;2024-02-26T10:39:24;10.75;;;5.05;;
84966;SDS011;75275;51.348;12.358;2024-02-26T10:41:51;9.25;;;5.00;;
84966;SDS011;75275;51.348;12.358;2024-02-26T10:44:19;9.50;;;4.85;;
84966;SDS011;75275;51.348;12.358;2024-02-26T10:46:46;9.55;;;4.50;;
84966;SDS011;75275;51.348;12.358;2024-02-26T10:49:14;8.27;;;5.03;;
84966;SDS011;75275;51.348;12.358;2024-02-26T10:51:44;6.95;;;4.80;;
84966;SDS011;75275;51.348;12.358;2024-02-26T10:54:16;7.90;;;5.13;;
84966;SDS011;75275;51.348;12.358;2024-02-26T10:56:43;9.07;;;4.85;;
84966;SDS011;75275;51.348;12.358;2024-02-26T10:59:14;7.72;;;4.93;;
84966;SDS011;75275;51.348;12.358;2024-02-26T11:01:46;9.82;;;4.55;;
84966;SDS011;75275;51.348;12.358;2024-02-26T11:04:14;9.52;;;4.68;;
84966;SDS011;75275;51.348;12.358;2024-02-26T11:06:42;8.48;;;4.40;;
84966;SDS011;75275;51.348;12.358;2024-02-26T11:12:07;6.95;;;4.35;;
84966;SDS011;75275;51.348;12.358;2024-02-26T11:14:37;9.68;;;5.47;;
84966;SDS011;75275;51.348;12.358;2024-02-26T11:17:07;10.25;;;4.85;;
84966;SDS011;75275;51.348;12.358;2024-02-26T11:19:36;8.18;;;5.20;;
84966;SDS011;75275;51.348;12.358;2024-02-26T11:22:04;10.35;;;5.38;;
84966;SDS011;75275;51.348;12.358;2024-02-26T11:24:31;8.68;;;5.15;;
84966;SDS011;75275;51.348;12.358;2024-02-26T11:27:05;9.30;;;5.30;;
84966;SDS011;75275;51.348;12.358;2024-02-26T11:29:33;8.35;;;5.25;;
84966;SDS011;75275;51.348;12.358;2024-02-26T11:32:05;7.32;;;4.93;;
84966;SDS011;75275;51.348;12.358;2024-02-26T11:34:33;7.82;;;4.55;;
84966;SDS011;75275;51.348;12.358;2024-02-26T11:37:08;8.02;;;5.15;;
84966;SDS011;75275;51.348;12.358;2024-02-26T11:39:39;9.88;;;5.03;;
84966;SDS011;75275;51.348;12.358;2024-02-26T11:42:06;8.63;;;4.93;;
84966;SDS011;75275;51.348;12.358;2024-02-26T11:44:34;8.00;;;4.45;;
84966;SDS011;75275;51.348;12.358;2024-02-26T11:47:09;8.88;;;4.80;;
84966;SDS011;75275;51.348;12.358;2024-02-26T11:49:36;10.43;;;5.95;;
84966;SDS011;75275;51.348;12.358;2024-02-26T11:52:05;9.57;;;5.80;;
84966;SDS011;75275;51.348;12.358;2024-02-26T11:54:47;7.70;;;4.53;;
84966;SDS011;75275;51.348;12.358;2024-02-26T11:57:25;12.88;;;5.43;;
84966;SDS011;75275;51.348;12.358;2024-02-26T11:59:54;7.90;;;5.13;;
84966;SDS011;75275;51.348;12.358;2024-02-26T12:02:40;7.80;;;5.50;;
84966;SDS011;75275;51.348;12.358;2024-02-26T12:05:10;11.88;;;5.97;;
84966;SDS011;75275;51.348;12.358;2024-02-26T12:07:40;11.95;;;6.43;;
84966;SDS011;75275;51.348;12.358;2024-02-26T12:10:17;8.98;;;5.78;;
84966;SDS011;75275;51.348;12.358;2024-02-26T12:12:52;9.55;;;5.93;;
84966;SDS011;75275;51.348;12.358;2024-02-26T12:15:22;10.63;;;6.40;;
84966;SDS011;75275;51.348;12.358;2024-02-26T12:17:51;8.90;;;6.15;;
84966;SDS011;75275;51.348;12.358;2024-02-26T12:20:19;8.82;;;6.22;;
84966;SDS011;75275;51.348;12.358;2024-02-26T12:22:49;11.93;;;6.70;;
84966;SDS011;75275;51.348;12.358;2024-02-26T12:25:24;10.05;;;5.55;;
84966;SDS011;75275;51.348;12.358;2024-02-26T12:27:55;10.18;;;6.40;;
84966;SDS011;75275;51.348;12.358;2024-02-26T12:30:23;10.55;;;6.55;;
84966;SDS011;75275;51.348;12.358;2024-02-26T12:32:50;10.15;;;6.95;;
84966;SDS011;75275;51.348;12.358;2024-02-26T12:35:22;8.32;;;6.43;;
84966;SDS011;75275;51.348;12.358;2024-02-26T12:37:49;10.20;;;7.03;;
84966;SDS011;75275;51.348;12.358;2024-02-26T12:40:17;9.07;;;5.95;;
84966;SDS011;75275;51.348;12.358;2024-02-26T12:42:45;9.48;;;6.40;;
84966;SDS011;75275;51.348;12.358;2024-02-26T12:45:13;8.52;;;6.07;;
84966;SDS011;75275;51.348;12.358;2024-02-26T12:47:42;9.07;;;5.93;;
84966;SDS011;75275;51.348;12.358;2024-02-26T12:50:10;8.70;;;5.53;;
84966;SDS011;75275;51.348;12.358;2024-02-26T12:52:39;10.38;;;6.53;;
84966;SDS011;75275;51.348;12.358;2024-02-26T12:55:07;8.93;;;5.75;;
84966;SDS011;75275;51.348;12.358;2024-02-26T12:57:36;8.57;;;6.18;;
84966;SDS011;75275;51.348;12.358;2024-02-26T13:00:15;8.43;;;5.78;;
84966;SDS011;75275;51.348;12.358;2024-02-26T13:02:44;8.88;;;5.72;;
84966;SDS011;75275;51.348;12.358;2024-02-26T13:05:13;11.80;;;6.65;;
84966;SDS011;75275;51.348;12.358;2024-02-26T13:07:40;8.95;;;6.07;;
84966;SDS011;75275;51.348;12.358;2024-02-26T13:10:08;9.40;;;5.65;;
84966;SDS011;75275;51.348;12.358;2024-02-26T13:12:37;8.30;;;5.70;;
84966;SDS011;75275;51.348;12.358;2024-02-26T13:15:07;9.15;;;5.75;;
84966;SDS011;75275;51.348;12.358;2024-02-26T13:17:41;12.63;;;6.38;;
84966;SDS011;75275;51.348;12.358;2024-02-26T13:20:08;8.65;;;5.03;;
84966;SDS011;75275;51.348;12.358;2024-02-26T13:22:39;11.10;;;5.57;;
84966;SDS011;75275;51.348;12.358;2024-02-26T13:25:06;10.05;;;6.43;;
84966;SDS011;75275;51.348;12.358;2024-02-26T13:27:34;10.68;;;6.15;;
84966;SDS011;75275;51.348;12.358;2024-02-26T13:30:02;9.52;;;5.38;;
84966;SDS011;75275;51.348;12.358;2024-02-26T13:32:37;10.15;;;6.13;;
84966;SDS011;75275;51.348;12.358;2024-02-26T13:35:06;9.25;;;6.03;;
84966;SDS011;75275;51.348;12.358;2024-02-26T13:37:34;9.57;;;6.63;;
84966;SDS011;75275;51.348;12.358;2024-02-26T13:40:05;10.32;;;5.65;;
84966;SDS011;75275;51.348;12.358;2024-02-26T13:42:33;10.40;;;6.25;;
84966;SDS011;75275;51.348;12.358;2024-02-26T13:45:00;16.50;;;5.97;;
84966;SDS011;75275;51.348;12.358;2024-02-26T13:47:32;9.30;;;5.78;;
84966;SDS011;75275;51.348;12.358;2024-02-26T13:49:59;10.57;;;6.35;;
84966;SDS011;75275;51.348;12.358;2024-02-26T13:52:27;9.60;;;5.70;;
84966;SDS011;75275;51.348;12.358;2024-02-26T13:54:54;8.30;;;5.90;;
84966;SDS011;75275;51.348;12.358;2024-02-26T13:57:21;8.75;;;5.88;;
84966;SDS011;75275;51.348;12.358;2024-02-26T13:59:48;9.35;;;5.63;;
84966;SDS011;75275;51.348;12.358;2024-02-26T14:02:17;7.43;;;4.97;;
84966;SDS011;75275;51.348;12.358;2024-02-26T14:04:45;8.00;;;5.85;;
84966;SDS011;75275;51.348;12.358;2024-02-26T14:07:13;7.78;;;5.53;;
84966;SDS011;75275;51.348;12.358;2024-02-26T14:09:42;10.68;;;5.60;;
84966;SDS011;75275;51.348;12.358;2024-02-26T14:12:09;8.13;;;5.28;;
84966;SDS011;75275;51.348;12.358;2024-02-26T14:14:36;8.63;;;5.60;;
84966;SDS011;75275;51.348;12.358;2024-02-26T14:17:04;10.55;;;6.50;;
84966;SDS011;75275;51.348;12.358;2024-02-26T14:19:31;9.65;;;6.13;;
84966;SDS011;75275;51.348;12.358;2024-02-26T14:22:02;8.18;;;5.45;;
84966;SDS011;75275;51.348;12.358;2024-02-26T14:24:29;9.63;;;5.97;;
84966;SDS011;75275;51.348;12.358;2024-02-26T14:26:56;7.97;;;5.25;;
84966;SDS011;75275;51.348;12.358;2024-02-26T14:29:23;10.02;;;5.22;;
84966;SDS011;75275;51.348;12.358;2024-02-26T14:31:49;10.65;;;5.75;;
84966;SDS011;75275;51.348;12.358;2024-02-26T14:34:16;7.95;;;4.90;;
84966;SDS011;75275;51.348;12.358;2024-02-26T14:36:44;11.55;;;6.45;;
84966;SDS011;75275;51.348;12.358;2024-02-26T14:39:12;9.25;;;5.28;;
84966;SDS011;75275;51.348;12.358;2024-02-26T14:41:40;14.00;;;5.80;;
84966;SDS011;75275;51.348;12.358;2024-02-26T14:44:07;8.73;;;6.35;;
84966;SDS011;75275;51.348;12.358;2024-02-26T14:46:35;9.35;;;5.57;;
84966;SDS011;75275;51.348;12.358;2024-02-26T14:49:03;8.90;;;6.00;;
84966;SDS011;75275;51.348;12.358;2024-02-26T14:51:30;9.98;;;5.60;;
84966;SDS011;75275;51.348;12.358;2024-02-26T14:53:57;9.70;;;5.82;;
84966;SDS011;75275;51.348;12.358;2024-02-26T14:56:31;11.95;;;6.35;;
84966;SDS011;75275;51.348;12.358;2024-02-26T14:58:58;10.90;;;7.07;;
84966;SDS011;75275;51.348;12.358;2024-02-26T15:01:25;10.63;;;6.55;;
84966;SDS011;75275;51.348;12.358;2024-02-26T15:03:52;9.20;;;6.18;;
84966;SDS011;75275;51.348;12.358;2024-02-26T15:06:20;10.40;;;6.57;;